createdAt,value
2018-08-29T00:00:54.520Z,99
2018-08-29T00:01:56.538Z,100
2018-08-29T00:02:58.581Z,100
2018-08-29T00:04:00.891Z,100
2018-08-29T00:05:03.581Z,100
2018-08-29T00:06:05.613Z,100
2018-08-29T00:07:07.636Z,100
2018-08-29T00:08:09.673Z,100
2018-08-29T00:09:12.273Z,100
2018-08-29T00:10:14.302Z,100
2018-08-29T00:11:16.317Z,100
2018-08-29T00:12:18.644Z,100
2018-08-29T00:13:20.674Z,100
2018-08-29T00:14:22.698Z,100
2018-08-29T00:15:25.121Z,100
2018-08-29T00:16:27.149Z,100
2018-08-29T00:17:29.170Z,100
2018-08-29T00:18:31.203Z,100
2018-08-29T00:19:33.226Z,100
2018-08-29T00:20:35.254Z,100
2018-08-29T00:21:37.569Z,100
2018-08-29T00:22:39.590Z,100
2018-08-29T00:23:41.630Z,100
2018-08-29T00:24:43.668Z,100
2018-08-29T00:25:45.981Z,100
2018-08-29T00:26:48.016Z,100
2018-08-29T00:27:50.044Z,100
2018-08-29T00:28:52.070Z,100
2018-08-29T00:29:54.388Z,100
2018-08-29T00:30:56.692Z,100
2018-08-29T00:31:58.738Z,100
2018-08-29T00:33:00.751Z,100
2018-08-29T00:34:02.786Z,100
2018-08-29T00:35:05.089Z,100
2018-08-29T00:36:07.127Z,99
2018-08-29T00:37:09.149Z,99
2018-08-29T00:38:11.171Z,99
2018-08-29T00:39:13.204Z,99
2018-08-29T00:40:15.224Z,99
2018-08-29T00:41:17.259Z,99
2018-08-29T00:42:19.295Z,99
2018-08-29T00:43:21.330Z,99
2018-08-29T00:44:23.349Z,98
2018-08-29T00:45:25.382Z,98
2018-08-29T00:46:27.690Z,98
2018-08-29T00:47:29.712Z,98
2018-08-29T00:48:32.056Z,98
2018-08-29T00:49:34.076Z,98
2018-08-29T00:50:36.098Z,98
2018-08-29T00:51:38.135Z,98
2018-08-29T00:52:40.161Z,98
2018-08-29T00:53:42.182Z,98
2018-08-29T00:54:44.209Z,98
2018-08-29T00:55:46.230Z,98
2018-08-29T00:56:48.262Z,98
2018-08-29T00:57:50.297Z,98
2018-08-29T00:58:52.724Z,98
2018-08-29T00:59:54.745Z,98
2018-08-29T01:00:57.084Z,98
2018-08-29T01:01:59.110Z,98
2018-08-29T01:03:01.419Z,98
2018-08-29T01:04:03.439Z,98
2018-08-29T01:05:05.482Z,98
2018-08-29T01:06:07.505Z,98
2018-08-29T01:07:09.540Z,98
2018-08-29T01:08:11.558Z,98
2018-08-29T01:09:13.598Z,98
2018-08-29T01:10:15.622Z,97
2018-08-29T01:11:17.642Z,97
2018-08-29T01:12:19.674Z,97
2018-08-29T01:13:22.076Z,97
2018-08-29T01:14:24.394Z,97
2018-08-29T01:15:26.733Z,97
2018-08-29T01:16:28.765Z,97
2018-08-29T01:17:30.788Z,97
2018-08-29T01:18:32.823Z,97
2018-08-29T01:19:34.853Z,97
2018-08-29T01:20:36.880Z,98
2018-08-29T01:21:38.914Z,97
2018-08-29T01:22:41.322Z,98
2018-08-29T01:23:43.340Z,98
2018-08-29T01:24:45.378Z,98
2018-08-29T01:25:47.682Z,98
2018-08-29T01:26:50.279Z,98
2018-08-29T01:27:52.599Z,97
2018-08-29T01:28:54.624Z,97
2018-08-29T01:29:56.658Z,97
2018-08-29T01:30:58.694Z,97
2018-08-29T01:32:00.730Z,97
2018-08-29T01:33:03.028Z,97
2018-08-29T01:34:05.120Z,97
2018-08-29T01:35:07.408Z,97
2018-08-29T01:36:09.439Z,97
2018-08-29T01:37:11.478Z,97
2018-08-29T01:38:13.495Z,97
2018-08-29T01:39:15.835Z,97
2018-08-29T01:40:17.856Z,97
2018-08-29T01:41:19.891Z,97
2018-08-29T01:42:21.910Z,97
2018-08-29T01:43:24.329Z,97
2018-08-29T01:44:26.367Z,97
2018-08-29T01:45:28.781Z,97
2018-08-29T01:46:30.821Z,97
2018-08-29T01:47:32.840Z,97
2018-08-29T01:48:34.863Z,97
2018-08-29T01:49:36.881Z,97
2018-08-29T01:50:38.919Z,97
2018-08-29T01:51:41.222Z,97
2018-08-29T01:52:43.536Z,97
2018-08-29T01:53:45.572Z,97
2018-08-29T01:54:47.585Z,97
2018-08-29T01:55:49.618Z,97
2018-08-29T01:56:51.653Z,97
2018-08-29T01:57:53.952Z,97
2018-08-29T01:58:55.987Z,97
2018-08-29T01:59:58.025Z,97
2018-08-29T02:01:00.051Z,97
2018-08-29T02:02:02.138Z,97
2018-08-29T02:03:04.110Z,97
2018-08-29T02:04:06.134Z,96
2018-08-29T02:05:08.161Z,96
2018-08-29T02:06:10.488Z,96
2018-08-29T02:07:12.506Z,96
2018-08-29T02:08:14.544Z,96
2018-08-29T02:09:16.963Z,96
2018-08-29T02:10:19.380Z,96
2018-08-29T02:11:21.700Z,96
2018-08-29T02:12:23.725Z,96
2018-08-29T02:13:26.427Z,96
2018-08-29T02:14:29.110Z,96
2018-08-29T02:15:31.150Z,96
2018-08-29T02:16:33.452Z,96
2018-08-29T02:17:35.476Z,96
2018-08-29T02:18:37.787Z,96
2018-08-29T02:19:40.404Z,96
2018-08-29T02:20:42.811Z,96
2018-08-29T02:21:44.836Z,96
2018-08-29T02:22:47.147Z,96
2018-08-29T02:23:49.764Z,96
2018-08-29T02:24:51.789Z,96
2018-08-29T02:25:53.817Z,96
2018-08-29T02:26:55.851Z,96
2018-08-29T02:27:57.871Z,96
2018-08-29T02:28:59.904Z,96
2018-08-29T02:30:02.333Z,96
2018-08-29T02:31:04.344Z,96
2018-08-29T02:32:06.381Z,96
2018-08-29T02:33:08.415Z,96
2018-08-29T02:34:11.118Z,96
2018-08-29T02:35:13.149Z,96
2018-08-29T02:36:15.557Z,96
2018-08-29T02:37:17.582Z,96
2018-08-29T02:38:19.603Z,96
2018-08-29T02:39:21.644Z,96
2018-08-29T02:40:23.663Z,96
2018-08-29T02:41:25.695Z,96
2018-08-29T02:42:27.725Z,96
2018-08-29T02:43:29.746Z,96
2018-08-29T02:44:31.784Z,96
2018-08-29T02:45:33.807Z,96
2018-08-29T02:46:35.838Z,96
2018-08-29T02:47:37.858Z,96
2018-08-29T02:48:39.896Z,96
2018-08-29T02:49:42.308Z,97
2018-08-29T02:50:44.331Z,97
2018-08-29T02:51:46.368Z,97
2018-08-29T02:52:48.387Z,97
2018-08-29T02:53:50.419Z,97
2018-08-29T02:54:52.452Z,97
2018-08-29T02:55:54.481Z,97
2018-08-29T02:56:57.275Z,97
2018-08-29T02:57:59.306Z,97
2018-08-29T02:59:02.289Z,97
2018-08-29T03:00:04.604Z,97
2018-08-29T03:01:06.617Z,97
2018-08-29T03:02:08.935Z,97
2018-08-29T03:03:10.981Z,97
2018-08-29T03:04:12.996Z,97
2018-08-29T03:05:15.026Z,97
2018-08-29T03:06:17.059Z,97
2018-08-29T03:07:19.471Z,97
2018-08-29T03:08:21.507Z,97
2018-08-29T03:09:23.530Z,97
2018-08-29T03:10:25.938Z,97
2018-08-29T03:11:27.960Z,96
2018-08-29T03:12:30.005Z,96
2018-08-29T03:13:32.320Z,96
2018-08-29T03:14:34.349Z,96
2018-08-29T03:15:36.963Z,96
2018-08-29T03:16:38.977Z,96
2018-08-29T03:17:41.297Z,96
2018-08-29T03:18:43.326Z,95
2018-08-29T03:19:45.646Z,95
2018-08-29T03:20:47.670Z,95
2018-08-29T03:21:49.991Z,95
2018-08-29T03:22:52.016Z,95
2018-08-29T03:23:54.327Z,95
2018-08-29T03:24:56.765Z,95
2018-08-29T03:25:59.159Z,94
2018-08-29T03:27:01.193Z,94
2018-08-29T03:28:03.532Z,94
2018-08-29T03:29:05.862Z,94
2018-08-29T03:30:07.884Z,93
2018-08-29T03:31:10.502Z,93
2018-08-29T03:32:12.535Z,93
2018-08-29T03:33:14.555Z,93
2018-08-29T03:34:16.598Z,93
2018-08-29T03:35:19.005Z,93
2018-08-29T03:36:21.037Z,92
2018-08-29T03:37:23.057Z,92
2018-08-29T03:38:25.147Z,92
2018-08-29T03:39:27.130Z,92
2018-08-29T03:40:29.154Z,92
2018-08-29T03:41:31.189Z,92
2018-08-29T03:42:33.220Z,92
2018-08-29T03:43:35.240Z,91
2018-08-29T03:44:37.263Z,91
2018-08-29T03:45:39.305Z,91
2018-08-29T03:46:41.609Z,91
2018-08-29T03:47:43.947Z,91
2018-08-29T03:48:45.976Z,91
2018-08-29T03:49:48.279Z,91
2018-08-29T03:50:50.317Z,91
2018-08-29T03:51:52.345Z,91
2018-08-29T03:52:54.378Z,91
2018-08-29T03:53:56.397Z,91
2018-08-29T03:54:59.051Z,91
2018-08-29T03:56:01.070Z,91
2018-08-29T03:57:03.095Z,91
2018-08-29T03:58:05.134Z,91
2018-08-29T03:59:07.150Z,91
2018-08-29T04:00:09.465Z,91
2018-08-29T04:01:11.501Z,91
2018-08-29T04:02:13.836Z,91
2018-08-29T04:03:15.855Z,91
2018-08-29T04:04:18.174Z,91
2018-08-29T04:05:20.487Z,91
2018-08-29T04:06:22.509Z,91
2018-08-29T04:07:25.212Z,91
2018-08-29T04:08:27.236Z,91
2018-08-29T04:09:29.262Z,91
2018-08-29T04:10:31.608Z,90
2018-08-29T04:11:33.635Z,91
2018-08-29T04:12:35.658Z,91
2018-08-29T04:13:37.688Z,91
2018-08-29T04:14:39.999Z,90
2018-08-29T04:15:42.030Z,91
2018-08-29T04:16:44.062Z,90
2018-08-29T04:17:46.095Z,91
2018-08-29T04:18:48.399Z,90
2018-08-29T04:19:50.442Z,91
2018-08-29T04:20:52.465Z,91
2018-08-29T04:21:54.559Z,91
2018-08-29T04:22:56.534Z,91
2018-08-29T04:23:58.841Z,90
2018-08-29T04:25:01.261Z,91
2018-08-29T04:26:03.292Z,90
2018-08-29T04:27:05.619Z,91
2018-08-29T04:28:07.636Z,91
2018-08-29T04:29:09.671Z,90
2018-08-29T04:30:11.703Z,91
2018-08-29T04:31:13.728Z,90
2018-08-29T04:32:15.774Z,90
2018-08-29T04:33:18.082Z,90
2018-08-29T04:34:20.111Z,90
2018-08-29T04:35:22.431Z,90
2018-08-29T04:36:24.472Z,90
2018-08-29T04:37:26.800Z,90
2018-08-29T04:38:28.825Z,90
2018-08-29T04:39:30.856Z,90
2018-08-29T04:40:33.265Z,90
2018-08-29T04:41:35.685Z,90
2018-08-29T04:42:38.010Z,90
2018-08-29T04:43:40.342Z,90
2018-08-29T04:44:42.705Z,90
2018-08-29T04:45:44.740Z,90
2018-08-29T04:46:46.767Z,90
2018-08-29T04:47:49.186Z,90
2018-08-29T04:48:51.217Z,90
2018-08-29T04:49:53.236Z,90
2018-08-29T04:50:55.562Z,90
2018-08-29T04:51:57.587Z,90
2018-08-29T04:52:59.628Z,91
2018-08-29T04:54:02.766Z,91
2018-08-29T04:55:04.619Z,91
2018-08-29T04:56:06.650Z,91
2018-08-29T04:57:08.672Z,91
2018-08-29T04:58:10.990Z,91
2018-08-29T04:59:13.394Z,91
2018-08-29T05:00:16.216Z,91
2018-08-29T05:01:18.533Z,91
2018-08-29T05:02:20.953Z,91
2018-08-29T05:03:23.271Z,91
2018-08-29T05:04:25.295Z,90
2018-08-29T05:05:27.619Z,91
2018-08-29T05:06:29.641Z,91
2018-08-29T05:07:31.662Z,90
2018-08-29T05:08:33.973Z,90
2018-08-29T05:09:36.293Z,90
2018-08-29T05:10:38.602Z,90
2018-08-29T05:11:41.299Z,90
2018-08-29T05:12:43.329Z,90
2018-08-29T05:13:45.340Z,90
2018-08-29T05:14:47.383Z,89
2018-08-29T05:15:49.700Z,89
2018-08-29T05:16:51.717Z,89
2018-08-29T05:17:54.134Z,89
2018-08-29T05:18:56.170Z,89
2018-08-29T05:19:58.200Z,89
2018-08-29T05:21:00.233Z,89
2018-08-29T05:22:02.254Z,89
2018-08-29T05:23:04.555Z,89
2018-08-29T05:24:06.623Z,89
2018-08-29T05:25:08.631Z,89
2018-08-29T05:26:10.652Z,88
2018-08-29T05:27:13.072Z,88
2018-08-29T05:28:15.405Z,88
2018-08-29T05:29:17.438Z,88
2018-08-29T05:30:19.457Z,88
2018-08-29T05:31:21.494Z,88
2018-08-29T05:32:23.523Z,88
2018-08-29T05:33:25.563Z,88
2018-08-29T05:34:28.270Z,88
2018-08-29T05:35:30.305Z,87
2018-08-29T05:36:32.338Z,87
2018-08-29T05:37:34.357Z,87
2018-08-29T05:38:36.397Z,88
2018-08-29T05:39:38.427Z,87
2018-08-29T05:40:40.728Z,87
2018-08-29T05:41:42.753Z,87
2018-08-29T05:42:44.792Z,87
2018-08-29T05:43:46.817Z,87
2018-08-29T05:44:48.852Z,87
2018-08-29T05:45:50.886Z,86
2018-08-29T05:46:52.906Z,86
2018-08-29T05:47:55.109Z,86
2018-08-29T05:48:57.261Z,86
2018-08-29T05:49:59.280Z,86
2018-08-29T05:51:01.317Z,86
2018-08-29T05:52:03.353Z,86
2018-08-29T05:53:05.383Z,85
2018-08-29T05:54:07.416Z,85
2018-08-29T05:55:09.730Z,85
2018-08-29T05:56:11.757Z,84
2018-08-29T05:57:13.780Z,84
2018-08-29T05:58:15.823Z,84
2018-08-29T05:59:18.127Z,84
2018-08-29T06:00:20.160Z,84
2018-08-29T06:01:22.486Z,84
2018-08-29T06:02:24.495Z,84
2018-08-29T06:03:26.533Z,83
2018-08-29T06:04:28.840Z,83
2018-08-29T06:05:30.875Z,83
2018-08-29T06:06:32.894Z,83
2018-08-29T06:07:34.928Z,83
2018-08-29T06:08:36.972Z,83
2018-08-29T06:09:39.001Z,82
2018-08-29T06:10:41.022Z,82
2018-08-29T06:11:43.344Z,82
2018-08-29T06:12:45.368Z,82
2018-08-29T06:13:47.397Z,82
2018-08-29T06:14:49.421Z,82
2018-08-29T06:15:51.456Z,81
2018-08-29T06:16:53.478Z,81
2018-08-29T06:17:55.507Z,81
2018-08-29T06:18:57.546Z,81
2018-08-29T06:19:59.560Z,82
2018-08-29T06:21:01.600Z,82
2018-08-29T06:22:03.633Z,82
2018-08-29T06:23:05.655Z,81
2018-08-29T06:24:07.691Z,80
2018-08-29T06:25:09.727Z,80
2018-08-29T06:26:11.760Z,80
2018-08-29T06:27:13.793Z,80
2018-08-29T06:28:15.819Z,80
2018-08-29T06:29:17.847Z,79
2018-08-29T06:30:20.823Z,79
2018-08-29T06:31:23.157Z,79
2018-08-29T06:32:25.219Z,79
2018-08-29T06:33:27.220Z,79
2018-08-29T06:34:29.255Z,78
2018-08-29T06:35:31.374Z,78
2018-08-29T06:36:33.322Z,78
2018-08-29T06:37:35.648Z,78
2018-08-29T06:38:37.681Z,78
2018-08-29T06:39:40.226Z,77
2018-08-29T06:40:42.266Z,78
2018-08-29T06:41:44.291Z,77
2018-08-29T06:42:46.770Z,77
2018-08-29T06:43:49.205Z,77
2018-08-29T06:44:51.225Z,77
2018-08-29T06:45:53.262Z,77
2018-08-29T06:46:55.690Z,77
2018-08-29T06:47:57.728Z,77
2018-08-29T06:49:00.032Z,76
2018-08-29T06:50:02.072Z,77
2018-08-29T06:51:04.403Z,76
2018-08-29T06:52:06.425Z,76
2018-08-29T06:53:08.462Z,76
2018-08-29T06:54:10.487Z,76
2018-08-29T06:55:12.514Z,77
2018-08-29T06:56:14.557Z,76
2018-08-29T06:57:16.582Z,76
2018-08-29T06:58:18.603Z,76
2018-08-29T06:59:21.037Z,76
2018-08-29T07:00:23.050Z,76
2018-08-29T07:01:25.474Z,76
2018-08-29T07:02:27.510Z,75
2018-08-29T07:03:29.548Z,75
2018-08-29T07:04:31.955Z,75
2018-08-29T07:05:34.281Z,75
2018-08-29T07:06:36.732Z,75
2018-08-29T07:07:38.768Z,74
2018-08-29T07:08:41.095Z,75
2018-08-29T07:09:43.123Z,74
2018-08-29T07:10:45.159Z,74
2018-08-29T07:11:47.473Z,73
2018-08-29T07:12:49.801Z,73
2018-08-29T07:13:51.824Z,73
2018-08-29T07:14:54.152Z,73
2018-08-29T07:15:56.222Z,72
2018-08-29T07:16:58.219Z,72
2018-08-29T07:18:00.260Z,72
2018-08-29T07:19:02.286Z,72
2018-08-29T07:20:04.592Z,71
2018-08-29T07:21:06.616Z,72
2018-08-29T07:22:09.050Z,71
2018-08-29T07:23:11.222Z,71
2018-08-29T07:24:13.500Z,71
2018-08-29T07:25:15.529Z,71
2018-08-29T07:26:17.573Z,71
2018-08-29T07:27:19.602Z,71
2018-08-29T07:28:22.304Z,70
2018-08-29T07:29:25.337Z,70
2018-08-29T07:30:27.647Z,71
2018-08-29T07:31:29.960Z,70
2018-08-29T07:32:31.991Z,70
2018-08-29T07:33:34.019Z,69
2018-08-29T07:34:36.056Z,69
2018-08-29T07:35:38.527Z,69
2018-08-29T07:36:40.503Z,69
2018-08-29T07:37:42.527Z,68
2018-08-29T07:38:44.571Z,68
2018-08-29T07:39:46.603Z,68
2018-08-29T07:40:48.644Z,67
2018-08-29T07:41:51.032Z,67
2018-08-29T07:42:53.008Z,67
2018-08-29T07:43:55.049Z,67
2018-08-29T07:44:57.760Z,67
2018-08-29T07:45:59.801Z,66
2018-08-29T07:47:01.829Z,66
2018-08-29T07:48:04.177Z,66
2018-08-29T07:49:06.220Z,66
2018-08-29T07:50:08.250Z,66
2018-08-29T07:51:10.296Z,66
2018-08-29T07:52:12.323Z,66
2018-08-29T07:53:14.354Z,66
2018-08-29T07:54:16.385Z,66
2018-08-29T07:55:18.430Z,65
2018-08-29T07:56:20.742Z,65
2018-08-29T07:57:22.783Z,65
2018-08-29T07:58:24.823Z,64
2018-08-29T07:59:27.232Z,63
2018-08-29T08:00:29.269Z,62
2018-08-29T08:01:31.410Z,62
2018-08-29T08:02:33.350Z,62
2018-08-29T08:03:35.375Z,62
2018-08-29T08:04:37.402Z,61
2018-08-29T08:05:39.823Z,60
2018-08-29T08:06:41.854Z,60
2018-08-29T08:07:44.049Z,60
2018-08-29T08:08:46.185Z,60
2018-08-29T08:09:48.453Z,59
2018-08-29T08:10:50.469Z,58
2018-08-29T08:11:52.811Z,58
2018-08-29T08:12:55.123Z,58
2018-08-29T08:13:57.730Z,57
2018-08-29T08:14:59.771Z,58
2018-08-29T08:16:01.793Z,57
2018-08-29T08:17:04.219Z,57
2018-08-29T08:18:06.244Z,56
2018-08-29T08:19:08.675Z,56
2018-08-29T08:20:10.697Z,55
2018-08-29T08:21:13.321Z,56
2018-08-29T08:22:15.297Z,55
2018-08-29T08:23:17.326Z,55
2018-08-29T08:24:19.369Z,54
2018-08-29T08:25:21.399Z,55
2018-08-29T08:26:23.426Z,55
2018-08-29T08:27:25.458Z,57
2018-08-29T08:28:27.503Z,54
2018-08-29T08:29:29.534Z,53
2018-08-29T08:30:31.569Z,53
2018-08-29T08:31:33.611Z,53
2018-08-29T08:32:35.790Z,52
2018-08-29T08:33:37.832Z,54
2018-08-29T08:34:40.179Z,53
2018-08-29T08:35:42.185Z,53
2018-08-29T08:36:44.224Z,52
2018-08-29T08:37:46.657Z,51
2018-08-29T08:38:48.695Z,51
2018-08-29T08:39:50.728Z,50
2018-08-29T08:40:53.339Z,50
2018-08-29T08:41:55.257Z,51
2018-08-29T08:42:57.304Z,51
2018-08-29T08:43:59.335Z,51
2018-08-29T08:45:01.381Z,50
2018-08-29T08:46:03.408Z,50
2018-08-29T08:47:05.448Z,50
2018-08-29T08:48:08.073Z,50
2018-08-29T08:49:10.413Z,49
2018-08-29T08:50:12.010Z,50
2018-08-29T08:51:14.037Z,49
2018-08-29T08:52:16.758Z,50
2018-08-29T08:53:18.783Z,49
2018-08-29T08:54:21.113Z,48
2018-08-29T08:55:23.436Z,48
2018-08-29T08:56:25.472Z,49
2018-08-29T08:57:27.520Z,48
2018-08-29T08:58:29.558Z,48
2018-08-29T08:59:31.603Z,49
2018-08-29T09:00:33.625Z,49
2018-08-29T09:01:35.979Z,48
2018-08-29T09:02:38.011Z,48
2018-08-29T09:03:40.056Z,48
2018-08-29T09:04:42.102Z,48
2018-08-29T09:05:44.132Z,48
2018-08-29T09:06:46.274Z,47
2018-08-29T09:07:48.219Z,47
2018-08-29T09:08:50.249Z,47
2018-08-29T09:09:52.296Z,47
2018-08-29T09:10:54.348Z,48
2018-08-29T09:11:56.664Z,46
2018-08-29T09:12:58.711Z,45
2018-08-29T09:14:00.748Z,45
2018-08-29T09:15:02.785Z,46
2018-08-29T09:16:04.821Z,46
2018-08-29T09:17:06.874Z,46
2018-08-29T09:18:08.906Z,46
2018-08-29T09:19:11.616Z,46
2018-08-29T09:20:13.658Z,45
2018-08-29T09:21:15.694Z,46
2018-08-29T09:22:18.035Z,46
2018-08-29T09:23:20.082Z,45
2018-08-29T09:24:22.694Z,44
2018-08-29T09:25:24.646Z,46
2018-08-29T09:26:26.743Z,46
2018-08-29T09:27:29.117Z,45
2018-08-29T09:28:31.238Z,45
2018-08-29T09:29:33.204Z,46
2018-08-29T09:30:35.234Z,46
2018-08-29T09:31:37.282Z,47
2018-08-29T09:32:39.337Z,45
2018-08-29T09:33:41.370Z,47
2018-08-29T09:34:43.422Z,46
2018-08-29T09:35:45.451Z,45
2018-08-29T09:36:47.496Z,46
2018-08-29T09:37:49.530Z,45
2018-08-29T09:38:51.584Z,44
2018-08-29T09:39:53.620Z,45
2018-08-29T09:40:55.663Z,46
2018-08-29T09:41:57.713Z,45
2018-08-29T09:42:59.751Z,45
2018-08-29T09:44:01.788Z,45
2018-08-29T09:45:04.416Z,44
2018-08-29T09:46:06.346Z,44
2018-08-29T09:47:08.753Z,43
2018-08-29T09:48:11.004Z,42
2018-08-29T09:49:13.052Z,42
2018-08-29T09:50:15.106Z,43
2018-08-29T09:51:17.566Z,42
2018-08-29T09:52:19.941Z,42
2018-08-29T09:53:21.985Z,43
2018-08-29T09:54:24.024Z,42
2018-08-29T09:55:26.165Z,42
2018-08-29T09:56:28.574Z,42
2018-08-29T09:57:30.908Z,42
2018-08-29T09:58:32.946Z,42
2018-08-29T09:59:35.004Z,42
2018-08-29T10:00:37.337Z,40
2018-08-29T10:01:39.380Z,42
2018-08-29T10:02:41.434Z,40
2018-08-29T10:03:43.470Z,41
2018-08-29T10:04:45.524Z,41
2018-08-29T10:05:47.573Z,40
2018-08-29T10:06:49.627Z,41
2018-08-29T10:07:51.661Z,41
2018-08-29T10:08:53.711Z,40
2018-08-29T10:09:55.768Z,41
2018-08-29T10:10:57.805Z,41
2018-08-29T10:12:00.139Z,41
2018-08-29T10:13:02.178Z,41
2018-08-29T10:14:04.237Z,40
2018-08-29T10:15:06.795Z,42
2018-08-29T10:16:08.835Z,41
2018-08-29T10:17:10.878Z,40
2018-08-29T10:18:12.923Z,40
2018-08-29T10:19:14.964Z,40
2018-08-29T10:20:17.019Z,40
2018-08-29T10:21:19.065Z,39
2018-08-29T10:22:21.117Z,39
2018-08-29T10:23:23.294Z,39
2018-08-29T10:24:25.204Z,39
2018-08-29T10:25:27.630Z,40
2018-08-29T10:26:29.676Z,39
2018-08-29T10:27:31.727Z,40
2018-08-29T10:28:34.040Z,40
2018-08-29T10:29:36.091Z,39
2018-08-29T10:30:38.131Z,39
2018-08-29T10:31:40.187Z,39
2018-08-29T10:32:42.515Z,39
2018-08-29T10:33:44.554Z,38
2018-08-29T10:34:46.593Z,38
2018-08-29T10:35:48.646Z,38
2018-08-29T10:36:51.276Z,39
2018-08-29T10:37:53.387Z,38
2018-08-29T10:38:55.381Z,37
2018-08-29T10:39:57.430Z,38
2018-08-29T10:40:59.467Z,39
2018-08-29T10:42:01.520Z,39
2018-08-29T10:43:03.564Z,40
2018-08-29T10:44:05.604Z,37
2018-08-29T10:45:07.831Z,37
2018-08-29T10:46:09.985Z,38
2018-08-29T10:47:12.027Z,38
2018-08-29T10:48:14.372Z,38
2018-08-29T10:49:16.414Z,36
2018-08-29T10:50:19.123Z,37
2018-08-29T10:51:21.169Z,36
2018-08-29T10:52:23.215Z,36
2018-08-29T10:53:25.545Z,36
2018-08-29T10:54:27.598Z,37
2018-08-29T10:55:29.653Z,37
2018-08-29T10:56:31.685Z,37
2018-08-29T10:57:33.903Z,36
2018-08-29T10:58:35.786Z,35
2018-08-29T10:59:38.120Z,36
2018-08-29T11:00:40.173Z,36
2018-08-29T11:01:42.546Z,37
2018-08-29T11:02:44.615Z,36
2018-08-29T11:03:46.654Z,36
2018-08-29T11:04:48.761Z,37
2018-08-29T11:05:50.754Z,36
2018-08-29T11:06:52.815Z,36
2018-08-29T11:07:54.868Z,36
2018-08-29T11:08:56.912Z,35
2018-08-29T11:09:58.965Z,36
2018-08-29T11:11:01.022Z,36
2018-08-29T11:12:03.081Z,35
2018-08-29T11:13:05.521Z,35
2018-08-29T11:14:07.556Z,35
2018-08-29T11:15:09.898Z,35
2018-08-29T11:16:11.956Z,35
2018-08-29T11:17:14.373Z,35
2018-08-29T11:18:16.433Z,36
2018-08-29T11:19:18.475Z,36
2018-08-29T11:20:20.902Z,36
2018-08-29T11:21:22.956Z,36
2018-08-29T11:22:25.021Z,35
2018-08-29T11:23:27.354Z,34
2018-08-29T11:24:29.402Z,34
2018-08-29T11:25:31.448Z,34
2018-08-29T11:26:33.514Z,35
2018-08-29T11:27:35.843Z,34
2018-08-29T11:28:37.905Z,34
2018-08-29T11:29:40.330Z,35
2018-08-29T11:30:42.390Z,34
2018-08-29T11:31:44.436Z,34
2018-08-29T11:32:46.840Z,34
2018-08-29T11:33:49.629Z,34
2018-08-29T11:34:52.200Z,35
2018-08-29T11:35:55.146Z,34
2018-08-29T11:36:57.706Z,35
2018-08-29T11:38:00.264Z,34
2018-08-29T11:39:03.063Z,34
2018-08-29T11:40:05.296Z,33
2018-08-29T11:41:07.352Z,33
2018-08-29T11:42:10.271Z,33
2018-08-29T11:43:12.736Z,33
2018-08-29T11:44:14.711Z,33
2018-08-29T11:45:16.753Z,33
2018-08-29T11:46:18.793Z,33
2018-08-29T11:47:20.856Z,34
2018-08-29T11:48:22.902Z,34
2018-08-29T11:49:25.523Z,32
2018-08-29T11:50:27.883Z,33
2018-08-29T11:51:30.307Z,34
2018-08-29T11:52:32.361Z,32
2018-08-29T11:53:34.414Z,33
2018-08-29T11:54:36.455Z,33
2018-08-29T11:55:38.795Z,33
2018-08-29T11:56:40.849Z,33
2018-08-29T11:57:43.185Z,32
2018-08-29T11:58:45.241Z,32
2018-08-29T11:59:47.283Z,33
2018-08-29T12:00:49.330Z,32
2018-08-29T12:01:51.368Z,33
2018-08-29T12:02:53.429Z,32
2018-08-29T12:03:55.467Z,32
2018-08-29T12:04:57.521Z,33
2018-08-29T12:05:59.568Z,32
2018-08-29T12:07:01.615Z,32
2018-08-29T12:08:04.105Z,32
2018-08-29T12:09:06.109Z,32
2018-08-29T12:10:08.447Z,32
2018-08-29T12:11:10.491Z,33
2018-08-29T12:12:12.549Z,33
2018-08-29T12:13:14.877Z,32
2018-08-29T12:14:16.926Z,33
2018-08-29T12:15:19.268Z,33
2018-08-29T12:16:22.161Z,33
2018-08-29T12:17:24.214Z,34
2018-08-29T12:18:26.851Z,33
2018-08-29T12:19:28.983Z,33
2018-08-29T12:20:30.944Z,33
2018-08-29T12:21:33.287Z,33
2018-08-29T12:22:35.340Z,33
2018-08-29T12:23:37.380Z,33
2018-08-29T12:24:39.440Z,33
2018-08-29T12:25:41.770Z,34
2018-08-29T12:26:43.820Z,33
2018-08-29T12:27:45.859Z,32
2018-08-29T12:28:47.909Z,33
2018-08-29T12:29:49.967Z,32
2018-08-29T12:30:52.020Z,32
2018-08-29T12:31:54.552Z,33
2018-08-29T12:32:56.600Z,32
2018-08-29T12:33:58.646Z,32
2018-08-29T12:35:00.688Z,32
2018-08-29T12:36:02.746Z,33
2018-08-29T12:37:04.784Z,32
2018-08-29T12:38:07.121Z,32
2018-08-29T12:39:09.551Z,33
2018-08-29T12:40:11.593Z,32
2018-08-29T12:41:14.036Z,32
2018-08-29T12:42:16.078Z,33
2018-08-29T12:43:18.418Z,32
2018-08-29T12:44:20.748Z,32
2018-08-29T12:45:22.806Z,32
2018-08-29T12:46:24.848Z,33
2018-08-29T12:47:26.891Z,32
2018-08-29T12:48:28.947Z,32
2018-08-29T12:49:31.042Z,31
2018-08-29T12:50:33.561Z,32
2018-08-29T12:51:35.432Z,32
2018-08-29T12:52:37.766Z,33
2018-08-29T12:53:39.815Z,33
2018-08-29T12:54:41.875Z,32
2018-08-29T12:55:43.923Z,32
2018-08-29T12:56:45.968Z,33
2018-08-29T12:57:48.031Z,34
2018-08-29T12:58:50.069Z,34
2018-08-29T12:59:52.113Z,34
2018-08-29T13:00:54.171Z,33
2018-08-29T13:01:56.244Z,32
2018-08-29T13:02:58.654Z,33
2018-08-29T13:04:00.700Z,32
2018-08-29T13:05:03.031Z,32
2018-08-29T13:06:05.084Z,34
2018-08-29T13:07:07.137Z,35
2018-08-29T13:08:09.584Z,32
2018-08-29T13:09:11.621Z,33
2018-08-29T13:10:13.679Z,32
2018-08-29T13:11:16.015Z,32
2018-08-29T13:12:18.461Z,32
2018-08-29T13:13:20.517Z,32
2018-08-29T13:14:23.126Z,32
2018-08-29T13:15:25.911Z,33
2018-08-29T13:16:27.962Z,33
2018-08-29T13:17:30.021Z,33
2018-08-29T13:18:32.062Z,32
2018-08-29T13:19:34.118Z,33
2018-08-29T13:20:36.175Z,32
2018-08-29T13:21:38.220Z,32
2018-08-29T13:22:40.284Z,32
2018-08-29T13:23:42.324Z,32
2018-08-29T13:24:44.368Z,32
2018-08-29T13:25:46.412Z,32
2018-08-29T13:26:49.021Z,32
2018-08-29T13:27:51.040Z,32
2018-08-29T13:28:53.089Z,32
2018-08-29T13:29:55.144Z,33
2018-08-29T13:30:57.185Z,33
2018-08-29T13:31:59.239Z,32
2018-08-29T13:33:01.294Z,32
2018-08-29T13:34:03.616Z,33
2018-08-29T13:35:05.751Z,34
2018-08-29T13:36:07.945Z,33
2018-08-29T13:37:11.130Z,33
2018-08-29T13:38:13.257Z,34
2018-08-29T13:39:15.345Z,33
2018-08-29T13:40:17.391Z,33
2018-08-29T13:41:20.058Z,33
2018-08-29T13:42:22.444Z,34
2018-08-29T13:43:24.504Z,33
2018-08-29T13:44:26.548Z,34
2018-08-29T13:45:28.591Z,34
2018-08-29T13:46:30.944Z,34
2018-08-29T13:47:33.049Z,34
2018-08-29T13:48:35.178Z,34
2018-08-29T13:49:38.378Z,34
2018-08-29T13:50:40.821Z,33
2018-08-29T13:51:42.865Z,34
2018-08-29T13:52:45.211Z,33
2018-08-29T13:53:47.551Z,33
2018-08-29T13:54:49.597Z,34
2018-08-29T13:55:51.949Z,34
2018-08-29T13:56:54.000Z,34
2018-08-29T13:57:56.048Z,33
2018-08-29T13:58:58.097Z,33
2018-08-29T14:00:00.159Z,33
2018-08-29T14:01:02.214Z,34
2018-08-29T14:02:04.552Z,34
2018-08-29T14:03:06.612Z,34
2018-08-29T14:04:08.651Z,34
2018-08-29T14:05:10.747Z,34
2018-08-29T14:06:15.865Z,34
2018-08-29T14:07:21.803Z,35
2018-08-29T14:08:27.997Z,34
2018-08-29T14:09:37.027Z,34
2018-08-29T14:10:45.067Z,33
2018-08-29T14:11:50.964Z,33
2018-08-29T14:13:00.659Z,35
2018-08-29T14:14:08.474Z,34
2018-08-29T14:15:17.303Z,34
2018-08-29T14:16:22.076Z,34
2018-08-29T14:17:27.168Z,34
2018-08-29T14:18:35.465Z,34
2018-08-29T14:19:42.440Z,34
2018-08-29T14:20:49.851Z,33
2018-08-29T14:21:54.959Z,33
2018-08-29T14:23:02.440Z,33
2018-08-29T14:24:09.700Z,33
2018-08-29T14:25:17.112Z,33
2018-08-29T14:26:23.759Z,34
2018-08-29T14:27:29.666Z,33
2018-08-29T14:28:34.759Z,33
2018-08-29T14:29:42.041Z,33
2018-08-29T14:30:48.251Z,33
2018-08-29T14:31:55.829Z,32
2018-08-29T14:33:02.211Z,32
2018-08-29T14:34:08.799Z,33
2018-08-29T14:35:15.491Z,33
2018-08-29T14:36:22.758Z,33
2018-08-29T14:37:27.550Z,33
2018-08-29T14:38:32.950Z,33
2018-08-29T14:39:38.618Z,33
2018-08-29T14:40:43.125Z,33
2018-08-29T14:41:50.608Z,33
2018-08-29T14:42:56.992Z,33
2018-08-29T14:43:59.125Z,33
2018-08-29T14:45:05.835Z,33
2018-08-29T14:46:13.033Z,34
2018-08-29T14:47:20.185Z,33
2018-08-29T14:48:26.976Z,33